Bostic, North Carolina
Current Conditions -  °F | °C
As of 6:35 AM on Thursday 27 Nov 2014 (Local Time) from KFQD Reporting Station
Clear Clear  
Wind Chill: 37°   Ceiling: Unl
Heat Index: 37°   Visibility: 10mi
Dew Point: 32°   Wind: 3mph
Humidity: 81%   Direction: 290°WNW
Pressure: 30"   Gusts: NA
Location:  35.36°N, 81.84°W
Report Text: KFQD 271135Z AUTO 29003KT 10SM CLR 03/00 A3000 RMK AO2 T00291001
Loading
Personal Weather Stations






























Interactive Weather Map New forecast layout! Learn more

10-Day Weather Forecast

Advertisements
Track Severe Weather on mobile